sensor_id;sensor_type;location;lat;lon;timestamp;P1;durP1;ratioP1;P2;durP2;ratioP2
44832;SDS011;30569;51.252;9.830;2023-03-01T00:01:02;14.70;;;8.53;;
44832;SDS011;30569;51.252;9.830;2023-03-01T00:03:32;13.50;;;8.23;;
44832;SDS011;30569;51.252;9.830;2023-03-01T00:05:58;14.70;;;8.73;;
44832;SDS011;30569;51.252;9.830;2023-03-01T00:08:24;15.87;;;9.07;;
44832;SDS011;30569;51.252;9.830;2023-03-01T00:10:59;15.73;;;8.57;;
44832;SDS011;30569;51.252;9.830;2023-03-01T00:13:25;14.00;;;8.63;;
44832;SDS011;30569;51.252;9.830;2023-03-01T00:15:51;16.03;;;8.80;;
44832;SDS011;30569;51.252;9.830;2023-03-01T00:18:17;19.10;;;10.00;;
44832;SDS011;30569;51.252;9.830;2023-03-01T00:20:48;17.87;;;8.77;;
44832;SDS011;30569;51.252;9.830;2023-03-01T00:23:18;15.00;;;8.70;;
44832;SDS011;30569;51.252;9.830;2023-03-01T00:25:44;14.83;;;7.93;;
44832;SDS011;30569;51.252;9.830;2023-03-01T00:28:10;12.60;;;8.37;;
44832;SDS011;30569;51.252;9.830;2023-03-01T00:30:36;17.20;;;8.97;;
44832;SDS011;30569;51.252;9.830;2023-03-01T00:33:02;15.10;;;8.60;;
44832;SDS011;30569;51.252;9.830;2023-03-01T00:35:28;14.00;;;9.07;;
44832;SDS011;30569;51.252;9.830;2023-03-01T00:37:54;16.17;;;9.37;;
44832;SDS011;30569;51.252;9.830;2023-03-01T00:40:29;14.93;;;8.37;;
44832;SDS011;30569;51.252;9.830;2023-03-01T00:42:56;20.83;;;9.43;;
44832;SDS011;30569;51.252;9.830;2023-03-01T00:45:22;13.47;;;8.93;;
44832;SDS011;30569;51.252;9.830;2023-03-01T00:47:49;16.37;;;9.37;;
44832;SDS011;30569;51.252;9.830;2023-03-01T00:50:15;15.67;;;8.27;;
44832;SDS011;30569;51.252;9.830;2023-03-01T00:52:41;16.77;;;10.13;;
44832;SDS011;30569;51.252;9.830;2023-03-01T00:55:07;14.50;;;9.10;;
44832;SDS011;30569;51.252;9.830;2023-03-01T00:57:33;14.13;;;8.63;;
44832;SDS011;30569;51.252;9.830;2023-03-01T00:59:59;16.77;;;8.97;;
44832;SDS011;30569;51.252;9.830;2023-03-01T01:02:25;18.47;;;8.93;;
44832;SDS011;30569;51.252;9.830;2023-03-01T01:04:51;14.37;;;8.93;;
44832;SDS011;30569;51.252;9.830;2023-03-01T01:07:16;14.63;;;8.27;;
44832;SDS011;30569;51.252;9.830;2023-03-01T01:09:44;16.93;;;9.17;;
44832;SDS011;30569;51.252;9.830;2023-03-01T01:12:10;17.70;;;9.57;;
44832;SDS011;30569;51.252;9.830;2023-03-01T01:14:36;14.83;;;9.30;;
44832;SDS011;30569;51.252;9.830;2023-03-01T01:17:03;17.37;;;9.03;;
44832;SDS011;30569;51.252;9.830;2023-03-01T01:19:29;15.33;;;9.40;;
44832;SDS011;30569;51.252;9.830;2023-03-01T01:21:55;14.47;;;9.23;;
44832;SDS011;30569;51.252;9.830;2023-03-01T01:24:21;16.00;;;9.20;;
44832;SDS011;30569;51.252;9.830;2023-03-01T01:26:47;19.87;;;9.50;;
44832;SDS011;30569;51.252;9.830;2023-03-01T01:29:13;15.57;;;8.60;;
44832;SDS011;30569;51.252;9.830;2023-03-01T01:31:40;16.00;;;9.53;;
44832;SDS011;30569;51.252;9.830;2023-03-01T01:34:07;15.33;;;8.63;;
44832;SDS011;30569;51.252;9.830;2023-03-01T01:36:37;16.67;;;9.57;;
44832;SDS011;30569;51.252;9.830;2023-03-01T01:39:03;16.57;;;9.50;;
44832;SDS011;30569;51.252;9.830;2023-03-01T01:41:29;18.47;;;8.93;;
44832;SDS011;30569;51.252;9.830;2023-03-01T01:44:12;16.50;;;9.77;;
44832;SDS011;30569;51.252;9.830;2023-03-01T01:46:57;17.93;;;9.47;;
44832;SDS011;30569;51.252;9.830;2023-03-01T01:50:08;19.40;;;9.88;;
44832;SDS011;30569;51.252;9.830;2023-03-01T01:52:23;17.97;;;9.33;;
44832;SDS011;30569;51.252;9.830;2023-03-01T01:55:08;15.80;;;9.37;;
44832;SDS011;30569;51.252;9.830;2023-03-01T01:57:39;20.57;;;10.13;;
44832;SDS011;30569;51.252;9.830;2023-03-01T02:00:18;17.00;;;9.17;;
44832;SDS011;30569;51.252;9.830;2023-03-01T02:02:46;18.03;;;10.20;;
44832;SDS011;30569;51.252;9.830;2023-03-01T02:07:44;16.30;;;9.70;;
44832;SDS011;30569;51.252;9.830;2023-03-01T02:10:12;16.27;;;10.20;;
44832;SDS011;30569;51.252;9.830;2023-03-01T02:12:38;17.13;;;9.50;;
44832;SDS011;30569;51.252;9.830;2023-03-01T02:15:04;15.53;;;8.90;;
44832;SDS011;30569;51.252;9.830;2023-03-01T02:17:30;18.40;;;10.33;;
44832;SDS011;30569;51.252;9.830;2023-03-01T02:20:06;17.33;;;11.13;;
44832;SDS011;30569;51.252;9.830;2023-03-01T02:22:38;14.80;;;9.40;;
44832;SDS011;30569;51.252;9.830;2023-03-01T02:30:38;18.63;;;10.68;;
44832;SDS011;30569;51.252;9.830;2023-03-01T02:33:25;17.73;;;9.93;;
44832;SDS011;30569;51.252;9.830;2023-03-01T02:35:50;15.50;;;9.70;;
44832;SDS011;30569;51.252;9.830;2023-03-01T02:38:18;18.10;;;10.37;;
44832;SDS011;30569;51.252;9.830;2023-03-01T02:40:44;20.87;;;10.07;;
44832;SDS011;30569;51.252;9.830;2023-03-01T02:43:10;22.47;;;10.90;;
44832;SDS011;30569;51.252;9.830;2023-03-01T02:45:38;19.67;;;10.47;;
44832;SDS011;30569;51.252;9.830;2023-03-01T02:48:13;18.03;;;10.13;;
44832;SDS011;30569;51.252;9.830;2023-03-01T02:51:02;19.50;;;11.07;;
44832;SDS011;30569;51.252;9.830;2023-03-01T02:56:18;20.67;;;11.02;;
44832;SDS011;30569;51.252;9.830;2023-03-01T02:58:43;21.07;;;10.63;;
44832;SDS011;30569;51.252;9.830;2023-03-01T03:01:23;21.90;;;11.45;;
44832;SDS011;30569;51.252;9.830;2023-03-01T03:04:07;19.37;;;10.27;;
44832;SDS011;30569;51.252;9.830;2023-03-01T03:06:35;21.70;;;10.37;;
44832;SDS011;30569;51.252;9.830;2023-03-01T03:09:02;22.90;;;12.17;;
44832;SDS011;30569;51.252;9.830;2023-03-01T03:11:28;18.83;;;10.43;;
44832;SDS011;30569;51.252;9.830;2023-03-01T03:13:55;18.87;;;9.97;;
44832;SDS011;30569;51.252;9.830;2023-03-01T03:16:21;17.97;;;10.50;;
44832;SDS011;30569;51.252;9.830;2023-03-01T03:18:48;18.53;;;10.77;;
44832;SDS011;30569;51.252;9.830;2023-03-01T03:21:14;16.43;;;10.03;;
44832;SDS011;30569;51.252;9.830;2023-03-01T03:23:41;17.97;;;10.50;;
44832;SDS011;30569;51.252;9.830;2023-03-01T03:26:07;18.50;;;9.57;;
44832;SDS011;30569;51.252;9.830;2023-03-01T03:28:33;21.37;;;10.80;;
44832;SDS011;30569;51.252;9.830;2023-03-01T03:30:59;20.50;;;11.20;;
44832;SDS011;30569;51.252;9.830;2023-03-01T03:33:29;31.87;;;15.43;;
44832;SDS011;30569;51.252;9.830;2023-03-01T03:35:55;27.20;;;13.33;;
44832;SDS011;30569;51.252;9.830;2023-03-01T03:38:21;29.90;;;14.43;;
44832;SDS011;30569;51.252;9.830;2023-03-01T03:40:48;41.87;;;18.67;;
44832;SDS011;30569;51.252;9.830;2023-03-01T03:43:17;36.50;;;18.17;;
44832;SDS011;30569;51.252;9.830;2023-03-01T03:45:45;25.07;;;13.80;;
44832;SDS011;30569;51.252;9.830;2023-03-01T03:48:12;33.23;;;15.73;;
44832;SDS011;30569;51.252;9.830;2023-03-01T03:50:39;45.13;;;20.63;;
44832;SDS011;30569;51.252;9.830;2023-03-01T03:53:09;55.57;;;23.73;;
44832;SDS011;30569;51.252;9.830;2023-03-01T03:55:36;32.97;;;15.60;;
44832;SDS011;30569;51.252;9.830;2023-03-01T03:58:04;33.33;;;16.10;;
44832;SDS011;30569;51.252;9.830;2023-03-01T04:00:32;19.53;;;12.13;;
44832;SDS011;30569;51.252;9.830;2023-03-01T04:02:59;20.30;;;11.80;;
44832;SDS011;30569;51.252;9.830;2023-03-01T04:05:26;24.93;;;12.27;;
44832;SDS011;30569;51.252;9.830;2023-03-01T04:07:52;24.97;;;13.00;;
44832;SDS011;30569;51.252;9.830;2023-03-01T04:10:26;37.17;;;16.73;;
44832;SDS011;30569;51.252;9.830;2023-03-01T04:12:56;32.17;;;14.17;;
44832;SDS011;30569;51.252;9.830;2023-03-01T04:15:22;39.50;;;17.37;;
44832;SDS011;30569;51.252;9.830;2023-03-01T04:17:50;24.07;;;12.63;;
44832;SDS011;30569;51.252;9.830;2023-03-01T04:20:19;27.23;;;13.03;;
44832;SDS011;30569;51.252;9.830;2023-03-01T04:25:22;28.98;;;15.40;;
44832;SDS011;30569;51.252;9.830;2023-03-01T04:27:48;25.97;;;13.97;;
44832;SDS011;30569;51.252;9.830;2023-03-01T04:30:14;23.97;;;12.57;;
44832;SDS011;30569;51.252;9.830;2023-03-01T04:32:40;22.87;;;12.13;;
44832;SDS011;30569;51.252;9.830;2023-03-01T04:35:06;20.30;;;12.13;;
44832;SDS011;30569;51.252;9.830;2023-03-01T04:37:32;20.27;;;11.13;;
44832;SDS011;30569;51.252;9.830;2023-03-01T04:39:59;22.17;;;11.40;;
44832;SDS011;30569;51.252;9.830;2023-03-01T04:42:25;22.20;;;11.87;;
44832;SDS011;30569;51.252;9.830;2023-03-01T04:44:51;23.90;;;11.63;;
44832;SDS011;30569;51.252;9.830;2023-03-01T04:47:17;21.93;;;11.60;;
44832;SDS011;30569;51.252;9.830;2023-03-01T04:49:43;18.47;;;11.37;;
44832;SDS011;30569;51.252;9.830;2023-03-01T04:52:09;19.90;;;10.93;;
44832;SDS011;30569;51.252;9.830;2023-03-01T04:54:35;21.63;;;11.50;;
44832;SDS011;30569;51.252;9.830;2023-03-01T04:57:01;21.67;;;11.77;;
44832;SDS011;30569;51.252;9.830;2023-03-01T04:59:27;25.43;;;13.00;;
44832;SDS011;30569;51.252;9.830;2023-03-01T05:01:54;27.10;;;15.33;;
44832;SDS011;30569;51.252;9.830;2023-03-01T05:04:21;28.73;;;14.10;;
44832;SDS011;30569;51.252;9.830;2023-03-01T05:06:47;33.50;;;16.37;;
44832;SDS011;30569;51.252;9.830;2023-03-01T05:09:12;23.03;;;12.23;;
44832;SDS011;30569;51.252;9.830;2023-03-01T05:11:38;22.27;;;12.13;;
44832;SDS011;30569;51.252;9.830;2023-03-01T05:14:05;24.70;;;13.03;;
44832;SDS011;30569;51.252;9.830;2023-03-01T05:16:32;24.00;;;13.07;;
44832;SDS011;30569;51.252;9.830;2023-03-01T05:18:58;24.13;;;12.33;;
44832;SDS011;30569;51.252;9.830;2023-03-01T05:21:24;21.77;;;11.73;;
44832;SDS011;30569;51.252;9.830;2023-03-01T05:23:50;21.83;;;12.70;;
44832;SDS011;30569;51.252;9.830;2023-03-01T05:26:18;24.47;;;12.50;;
44832;SDS011;30569;51.252;9.830;2023-03-01T05:28:46;22.27;;;12.07;;
44832;SDS011;30569;51.252;9.830;2023-03-01T05:31:13;19.83;;;10.87;;
44832;SDS011;30569;51.252;9.830;2023-03-01T05:33:39;23.20;;;12.40;;
44832;SDS011;30569;51.252;9.830;2023-03-01T05:36:06;20.93;;;12.30;;
44832;SDS011;30569;51.252;9.830;2023-03-01T05:38:34;21.97;;;11.47;;
44832;SDS011;30569;51.252;9.830;2023-03-01T05:41:01;21.80;;;10.67;;
44832;SDS011;30569;51.252;9.830;2023-03-01T05:43:29;19.63;;;11.13;;
44832;SDS011;30569;51.252;9.830;2023-03-01T05:46:01;20.53;;;11.30;;
44832;SDS011;30569;51.252;9.830;2023-03-01T05:48:27;21.07;;;11.57;;
44832;SDS011;30569;51.252;9.830;2023-03-01T05:50:52;19.20;;;11.00;;
44832;SDS011;30569;51.252;9.830;2023-03-01T05:53:19;18.87;;;10.27;;
44832;SDS011;30569;51.252;9.830;2023-03-01T05:55:48;18.43;;;9.83;;
44832;SDS011;30569;51.252;9.830;2023-03-01T05:58:15;20.73;;;11.13;;
44832;SDS011;30569;51.252;9.830;2023-03-01T06:00:44;16.83;;;10.03;;
44832;SDS011;30569;51.252;9.830;2023-03-01T06:03:11;20.10;;;10.83;;
44832;SDS011;30569;51.252;9.830;2023-03-01T06:05:38;19.63;;;10.60;;
44832;SDS011;30569;51.252;9.830;2023-03-01T06:08:04;18.93;;;10.30;;
44832;SDS011;30569;51.252;9.830;2023-03-01T06:10:30;33.23;;;10.73;;
44832;SDS011;30569;51.252;9.830;2023-03-01T06:12:56;15.93;;;9.73;;
44832;SDS011;30569;51.252;9.830;2023-03-01T06:15:23;17.17;;;10.37;;
44832;SDS011;30569;51.252;9.830;2023-03-01T06:17:49;19.83;;;10.53;;
44832;SDS011;30569;51.252;9.830;2023-03-01T06:20:19;18.07;;;9.60;;
44832;SDS011;30569;51.252;9.830;2023-03-01T06:22:46;18.50;;;9.93;;
44832;SDS011;30569;51.252;9.830;2023-03-01T06:25:14;17.40;;;9.87;;
44832;SDS011;30569;51.252;9.830;2023-03-01T06:27:42;21.70;;;10.70;;
44832;SDS011;30569;51.252;9.830;2023-03-01T06:30:08;16.13;;;9.53;;
44832;SDS011;30569;51.252;9.830;2023-03-01T06:32:36;19.07;;;10.43;;
44832;SDS011;30569;51.252;9.830;2023-03-01T06:35:02;19.90;;;9.70;;
44832;SDS011;30569;51.252;9.830;2023-03-01T06:37:28;17.27;;;9.40;;
44832;SDS011;30569;51.252;9.830;2023-03-01T06:39:54;18.10;;;10.63;;
44832;SDS011;30569;51.252;9.830;2023-03-01T06:42:20;18.77;;;10.00;;
44832;SDS011;30569;51.252;9.830;2023-03-01T06:44:46;20.87;;;10.63;;
44832;SDS011;30569;51.252;9.830;2023-03-01T06:47:12;18.83;;;10.23;;
44832;SDS011;30569;51.252;9.830;2023-03-01T06:49:37;18.97;;;10.07;;
44832;SDS011;30569;51.252;9.830;2023-03-01T06:52:03;18.37;;;10.67;;
44832;SDS011;30569;51.252;9.830;2023-03-01T06:54:29;20.03;;;8.93;;
44832;SDS011;30569;51.252;9.830;2023-03-01T06:56:54;16.90;;;9.13;;
44832;SDS011;30569;51.252;9.830;2023-03-01T06:59:20;16.60;;;9.63;;
44832;SDS011;30569;51.252;9.830;2023-03-01T07:01:46;19.43;;;10.53;;
44832;SDS011;30569;51.252;9.830;2023-03-01T07:04:12;17.83;;;9.47;;
44832;SDS011;30569;51.252;9.830;2023-03-01T07:06:39;15.47;;;9.33;;
44832;SDS011;30569;51.252;9.830;2023-03-01T07:09:05;18.63;;;10.23;;
44832;SDS011;30569;51.252;9.830;2023-03-01T07:11:31;17.60;;;9.57;;
44832;SDS011;30569;51.252;9.830;2023-03-01T07:13:57;17.90;;;9.70;;
44832;SDS011;30569;51.252;9.830;2023-03-01T07:16:25;14.27;;;9.33;;
44832;SDS011;30569;51.252;9.830;2023-03-01T07:18:50;16.03;;;8.90;;
44832;SDS011;30569;51.252;9.830;2023-03-01T07:21:16;16.73;;;9.03;;
44832;SDS011;30569;51.252;9.830;2023-03-01T07:23:42;14.63;;;9.40;;
44832;SDS011;30569;51.252;9.830;2023-03-01T07:26:08;17.30;;;9.87;;
44832;SDS011;30569;51.252;9.830;2023-03-01T07:28:34;18.93;;;9.60;;
44832;SDS011;30569;51.252;9.830;2023-03-01T07:31:03;17.83;;;9.13;;
44832;SDS011;30569;51.252;9.830;2023-03-01T07:33:28;16.20;;;9.67;;
44832;SDS011;30569;51.252;9.830;2023-03-01T07:35:55;21.17;;;8.87;;
44832;SDS011;30569;51.252;9.830;2023-03-01T07:38:25;18.03;;;9.30;;
44832;SDS011;30569;51.252;9.830;2023-03-01T07:40:52;15.53;;;9.03;;
44832;SDS011;30569;51.252;9.830;2023-03-01T07:43:18;16.20;;;9.20;;
44832;SDS011;30569;51.252;9.830;2023-03-01T07:45:44;16.97;;;8.80;;
44832;SDS011;30569;51.252;9.830;2023-03-01T07:48:10;15.70;;;9.00;;
44832;SDS011;30569;51.252;9.830;2023-03-01T07:50:36;16.50;;;8.93;;
44832;SDS011;30569;51.252;9.830;2023-03-01T07:53:01;16.90;;;9.03;;
44832;SDS011;30569;51.252;9.830;2023-03-01T07:55:27;13.73;;;8.70;;
44832;SDS011;30569;51.252;9.830;2023-03-01T07:57:53;17.50;;;8.73;;
44832;SDS011;30569;51.252;9.830;2023-03-01T08:00:19;16.40;;;8.80;;
44832;SDS011;30569;51.252;9.830;2023-03-01T08:02:45;15.47;;;8.10;;
44832;SDS011;30569;51.252;9.830;2023-03-01T08:05:11;18.27;;;8.63;;
44832;SDS011;30569;51.252;9.830;2023-03-01T08:07:37;15.00;;;8.37;;
44832;SDS011;30569;51.252;9.830;2023-03-01T08:10:02;21.10;;;8.53;;
44832;SDS011;30569;51.252;9.830;2023-03-01T08:12:28;13.73;;;7.97;;
44832;SDS011;30569;51.252;9.830;2023-03-01T08:14:54;13.77;;;8.50;;
44832;SDS011;30569;51.252;9.830;2023-03-01T08:17:22;18.90;;;9.50;;
44832;SDS011;30569;51.252;9.830;2023-03-01T08:19:48;15.03;;;9.23;;
44832;SDS011;30569;51.252;9.830;2023-03-01T08:22:14;13.13;;;7.93;;
44832;SDS011;30569;51.252;9.830;2023-03-01T08:24:40;15.87;;;7.90;;
44832;SDS011;30569;51.252;9.830;2023-03-01T08:27:06;13.90;;;8.47;;
44832;SDS011;30569;51.252;9.830;2023-03-01T08:29:32;13.77;;;7.83;;
44832;SDS011;30569;51.252;9.830;2023-03-01T08:31:58;14.33;;;7.77;;
44832;SDS011;30569;51.252;9.830;2023-03-01T08:34:24;15.63;;;8.33;;
44832;SDS011;30569;51.252;9.830;2023-03-01T08:36:50;15.40;;;8.33;;
44832;SDS011;30569;51.252;9.830;2023-03-01T08:39:17;13.93;;;8.20;;
44832;SDS011;30569;51.252;9.830;2023-03-01T08:41:45;14.37;;;8.47;;
44832;SDS011;30569;51.252;9.830;2023-03-01T08:44:12;12.23;;;7.90;;
44832;SDS011;30569;51.252;9.830;2023-03-01T08:46:39;15.80;;;8.37;;
44832;SDS011;30569;51.252;9.830;2023-03-01T08:49:13;12.60;;;7.43;;
44832;SDS011;30569;51.252;9.830;2023-03-01T08:51:40;13.33;;;7.17;;
44832;SDS011;30569;51.252;9.830;2023-03-01T08:54:09;14.90;;;8.13;;
44832;SDS011;30569;51.252;9.830;2023-03-01T08:56:36;13.63;;;7.60;;
44832;SDS011;30569;51.252;9.830;2023-03-01T08:59:02;14.67;;;7.33;;
44832;SDS011;30569;51.252;9.830;2023-03-01T09:01:28;10.33;;;5.73;;
44832;SDS011;30569;51.252;9.830;2023-03-01T09:03:54;14.53;;;7.13;;
44832;SDS011;30569;51.252;9.830;2023-03-01T09:06:20;14.93;;;7.10;;
44832;SDS011;30569;51.252;9.830;2023-03-01T09:08:47;14.57;;;7.10;;
44832;SDS011;30569;51.252;9.830;2023-03-01T09:11:15;14.20;;;7.50;;
44832;SDS011;30569;51.252;9.830;2023-03-01T09:13:42;12.37;;;6.57;;
44832;SDS011;30569;51.252;9.830;2023-03-01T09:16:09;12.30;;;6.53;;
44832;SDS011;30569;51.252;9.830;2023-03-01T09:18:36;13.17;;;6.47;;
44832;SDS011;30569;51.252;9.830;2023-03-01T09:21:03;15.20;;;7.50;;
44832;SDS011;30569;51.252;9.830;2023-03-01T09:23:34;10.73;;;6.40;;
44832;SDS011;30569;51.252;9.830;2023-03-01T09:26:02;12.47;;;6.60;;
44832;SDS011;30569;51.252;9.830;2023-03-01T09:28:28;10.10;;;5.70;;
44832;SDS011;30569;51.252;9.830;2023-03-01T09:30:57;12.40;;;6.20;;
44832;SDS011;30569;51.252;9.830;2023-03-01T09:33:23;12.23;;;6.37;;
44832;SDS011;30569;51.252;9.830;2023-03-01T09:35:49;11.57;;;6.60;;
44832;SDS011;30569;51.252;9.830;2023-03-01T09:38:15;13.57;;;6.70;;
44832;SDS011;30569;51.252;9.830;2023-03-01T09:40:41;13.23;;;7.00;;
44832;SDS011;30569;51.252;9.830;2023-03-01T09:44:11;12.17;;;6.77;;
44832;SDS011;30569;51.252;9.830;2023-03-01T09:46:12;11.87;;;6.37;;
44832;SDS011;30569;51.252;9.830;2023-03-01T09:48:42;12.20;;;7.07;;
44832;SDS011;30569;51.252;9.830;2023-03-01T09:51:18;10.30;;;6.30;;
44832;SDS011;30569;51.252;9.830;2023-03-01T09:53:54;11.25;;;7.05;;
44832;SDS011;30569;51.252;9.830;2023-03-01T09:56:24;11.50;;;6.82;;
44832;SDS011;30569;51.252;9.830;2023-03-01T09:59:00;13.18;;;7.15;;
44832;SDS011;30569;51.252;9.830;2023-03-01T10:01:56;9.95;;;6.03;;
44832;SDS011;30569;51.252;9.830;2023-03-01T10:07:17;11.50;;;6.40;;
44832;SDS011;30569;51.252;9.830;2023-03-01T10:10:07;11.27;;;6.38;;
44832;SDS011;30569;51.252;9.830;2023-03-01T10:12:37;11.60;;;6.72;;
44832;SDS011;30569;51.252;9.830;2023-03-01T10:15:19;11.02;;;6.75;;
44832;SDS011;30569;51.252;9.830;2023-03-01T10:18:04;11.48;;;7.00;;
44832;SDS011;30569;51.252;9.830;2023-03-01T10:23:21;12.50;;;6.93;;
44832;SDS011;30569;51.252;9.830;2023-03-01T10:25:56;11.90;;;6.60;;
44832;SDS011;30569;51.252;9.830;2023-03-01T10:31:22;10.75;;;6.60;;
44832;SDS011;30569;51.252;9.830;2023-03-01T10:33:53;12.85;;;6.95;;
44832;SDS011;30569;51.252;9.830;2023-03-01T10:36:20;9.48;;;5.90;;
44832;SDS011;30569;51.252;9.830;2023-03-01T10:38:48;11.00;;;6.47;;
44832;SDS011;30569;51.252;9.830;2023-03-01T10:41:18;14.98;;;7.15;;
44832;SDS011;30569;51.252;9.830;2023-03-01T10:43:52;10.82;;;6.38;;
44832;SDS011;30569;51.252;9.830;2023-03-01T10:49:13;14.38;;;6.55;;
44832;SDS011;30569;51.252;9.830;2023-03-01T10:51:41;12.90;;;7.03;;
44832;SDS011;30569;51.252;9.830;2023-03-01T10:54:16;12.02;;;6.80;;
44832;SDS011;30569;51.252;9.830;2023-03-01T10:56:45;12.07;;;7.18;;
44832;SDS011;30569;51.252;9.830;2023-03-01T10:59:22;14.17;;;7.27;;
44832;SDS011;30569;51.252;9.830;2023-03-01T11:04:27;13.17;;;5.97;;
44832;SDS011;30569;51.252;9.830;2023-03-01T11:06:59;10.77;;;6.57;;
44832;SDS011;30569;51.252;9.830;2023-03-01T11:09:26;11.75;;;6.63;;
44832;SDS011;30569;51.252;9.830;2023-03-01T11:12:02;12.33;;;7.00;;
44832;SDS011;30569;51.252;9.830;2023-03-01T11:14:32;11.80;;;6.50;;
44832;SDS011;30569;51.252;9.830;2023-03-01T11:17:03;10.23;;;6.17;;
44832;SDS011;30569;51.252;9.830;2023-03-01T11:19:40;12.63;;;6.37;;
44832;SDS011;30569;51.252;9.830;2023-03-01T11:22:13;12.30;;;6.47;;
44832;SDS011;30569;51.252;9.830;2023-03-01T11:24:44;10.93;;;6.40;;
44832;SDS011;30569;51.252;9.830;2023-03-01T11:27:17;11.65;;;6.95;;
44832;SDS011;30569;51.252;9.830;2023-03-01T11:32:25;11.80;;;6.07;;
44832;SDS011;30569;51.252;9.830;2023-03-01T11:34:56;10.57;;;6.20;;
44832;SDS011;30569;51.252;9.830;2023-03-01T11:40:25;11.77;;;6.20;;
44832;SDS011;30569;51.252;9.830;2023-03-01T11:48:39;12.83;;;6.40;;
44832;SDS011;30569;51.252;9.830;2023-03-01T11:54:30;13.37;;;6.07;;
44832;SDS011;30569;51.252;9.830;2023-03-01T12:03:24;13.10;;;7.07;;
44832;SDS011;30569;51.252;9.830;2023-03-01T12:12:08;12.93;;;6.70;;
44832;SDS011;30569;51.252;9.830;2023-03-01T12:15:18;10.60;;;6.63;;
44832;SDS011;30569;51.252;9.830;2023-03-01T12:18:13;13.40;;;6.57;;
44832;SDS011;30569;51.252;9.830;2023-03-01T12:29:38;12.73;;;6.57;;
44832;SDS011;30569;51.252;9.830;2023-03-01T12:38:14;11.27;;;6.03;;
44832;SDS011;30569;51.252;9.830;2023-03-01T12:43:46;10.10;;;5.70;;
44832;SDS011;30569;51.252;9.830;2023-03-01T12:46:36;11.47;;;6.23;;
44832;SDS011;30569;51.252;9.830;2023-03-01T12:49:14;13.67;;;7.00;;
44832;SDS011;30569;51.252;9.830;2023-03-01T12:51:46;11.40;;;6.57;;
44832;SDS011;30569;51.252;9.830;2023-03-01T12:54:28;12.00;;;6.50;;
44832;SDS011;30569;51.252;9.830;2023-03-01T12:56:56;13.57;;;6.37;;
44832;SDS011;30569;51.252;9.830;2023-03-01T12:59:30;12.83;;;6.93;;
44832;SDS011;30569;51.252;9.830;2023-03-01T13:02:07;14.90;;;7.20;;
44832;SDS011;30569;51.252;9.830;2023-03-01T13:07:39;13.43;;;7.17;;
44832;SDS011;30569;51.252;9.830;2023-03-01T13:12:53;12.57;;;6.83;;
44832;SDS011;30569;51.252;9.830;2023-03-01T13:15:32;13.93;;;7.13;;
44832;SDS011;30569;51.252;9.830;2023-03-01T13:23:24;11.43;;;6.53;;
44832;SDS011;30569;51.252;9.830;2023-03-01T13:33:41;11.53;;;6.47;;
44832;SDS011;30569;51.252;9.830;2023-03-01T13:36:10;10.50;;;5.93;;
44832;SDS011;30569;51.252;9.830;2023-03-01T13:39:02;12.23;;;6.53;;
44832;SDS011;30569;51.252;9.830;2023-03-01T13:46:57;11.33;;;6.20;;
44832;SDS011;30569;51.252;9.830;2023-03-01T13:49:33;11.83;;;6.23;;
44832;SDS011;30569;51.252;9.830;2023-03-01T13:52:13;11.63;;;6.17;;
44832;SDS011;30569;51.252;9.830;2023-03-01T13:54:53;10.93;;;5.93;;
44832;SDS011;30569;51.252;9.830;2023-03-01T13:57:21;10.60;;;5.87;;
44832;SDS011;30569;51.252;9.830;2023-03-01T13:59:51;11.77;;;6.17;;
44832;SDS011;30569;51.252;9.830;2023-03-01T14:02:16;10.83;;;5.37;;
44832;SDS011;30569;51.252;9.830;2023-03-01T14:04:42;9.60;;;5.17;;
44832;SDS011;30569;51.252;9.830;2023-03-01T14:07:08;10.97;;;5.43;;
44832;SDS011;30569;51.252;9.830;2023-03-01T14:09:42;11.20;;;5.33;;
44832;SDS011;30569;51.252;9.830;2023-03-01T14:14:42;9.27;;;4.80;;
44832;SDS011;30569;51.252;9.830;2023-03-01T14:17:41;9.53;;;5.20;;
44832;SDS011;30569;51.252;9.830;2023-03-01T14:20:19;10.33;;;5.13;;
44832;SDS011;30569;51.252;9.830;2023-03-01T14:22:52;10.67;;;4.83;;
44832;SDS011;30569;51.252;9.830;2023-03-01T14:25:27;10.70;;;5.10;;
44832;SDS011;30569;51.252;9.830;2023-03-01T14:27:56;10.37;;;5.07;;
44832;SDS011;30569;51.252;9.830;2023-03-01T14:30:30;9.47;;;4.73;;
44832;SDS011;30569;51.252;9.830;2023-03-01T14:33:06;9.00;;;4.83;;
44832;SDS011;30569;51.252;9.830;2023-03-01T14:36:00;10.13;;;4.90;;
44832;SDS011;30569;51.252;9.830;2023-03-01T14:38:38;7.23;;;4.30;;
44832;SDS011;30569;51.252;9.830;2023-03-01T14:41:12;9.90;;;5.00;;
44832;SDS011;30569;51.252;9.830;2023-03-01T14:44:00;9.47;;;5.13;;
44832;SDS011;30569;51.252;9.830;2023-03-01T14:46:33;9.27;;;4.60;;
44832;SDS011;30569;51.252;9.830;2023-03-01T14:51:30;9.37;;;4.80;;
44832;SDS011;30569;51.252;9.830;2023-03-01T14:54:05;10.30;;;5.00;;
44832;SDS011;30569;51.252;9.830;2023-03-01T14:56:45;11.23;;;5.03;;
44832;SDS011;30569;51.252;9.830;2023-03-01T14:59:11;10.80;;;4.90;;
44832;SDS011;30569;51.252;9.830;2023-03-01T15:01:38;9.63;;;4.93;;
44832;SDS011;30569;51.252;9.830;2023-03-01T15:04:06;9.90;;;4.93;;
44832;SDS011;30569;51.252;9.830;2023-03-01T15:06:37;12.03;;;5.07;;
44832;SDS011;30569;51.252;9.830;2023-03-01T15:09:03;9.50;;;4.90;;
44832;SDS011;30569;51.252;9.830;2023-03-01T15:11:30;56.97;;;39.83;;
44832;SDS011;30569;51.252;9.830;2023-03-01T15:13:57;15.50;;;5.70;;
44832;SDS011;30569;51.252;9.830;2023-03-01T15:18:59;32.67;;;15.77;;
44832;SDS011;30569;51.252;9.830;2023-03-01T15:21:27;9.53;;;5.10;;
44832;SDS011;30569;51.252;9.830;2023-03-01T15:23:59;12.03;;;4.27;;
44832;SDS011;30569;51.252;9.830;2023-03-01T15:26:52;9.97;;;4.57;;
44832;SDS011;30569;51.252;9.830;2023-03-01T15:29:23;8.63;;;4.70;;
44832;SDS011;30569;51.252;9.830;2023-03-01T15:31:56;7.83;;;4.20;;
44832;SDS011;30569;51.252;9.830;2023-03-01T15:36:51;9.87;;;4.70;;
44832;SDS011;30569;51.252;9.830;2023-03-01T15:42:05;7.77;;;4.50;;
44832;SDS011;30569;51.252;9.830;2023-03-01T15:44:36;9.47;;;4.93;;
44832;SDS011;30569;51.252;9.830;2023-03-01T15:47:06;8.97;;;4.90;;
44832;SDS011;30569;51.252;9.830;2023-03-01T15:49:47;7.77;;;4.03;;
44832;SDS011;30569;51.252;9.830;2023-03-01T15:52:15;8.90;;;4.37;;
44832;SDS011;30569;51.252;9.830;2023-03-01T15:54:53;12.50;;;5.40;;
44832;SDS011;30569;51.252;9.830;2023-03-01T15:57:27;8.05;;;4.63;;
44832;SDS011;30569;51.252;9.830;2023-03-01T15:59:53;7.53;;;4.23;;
44832;SDS011;30569;51.252;9.830;2023-03-01T16:02:18;8.70;;;4.23;;
44832;SDS011;30569;51.252;9.830;2023-03-01T16:04:46;9.47;;;4.57;;
44832;SDS011;30569;51.252;9.830;2023-03-01T16:07:13;10.57;;;4.50;;
44832;SDS011;30569;51.252;9.830;2023-03-01T16:09:39;11.13;;;4.70;;
44832;SDS011;30569;51.252;9.830;2023-03-01T16:12:05;8.83;;;5.07;;
44832;SDS011;30569;51.252;9.830;2023-03-01T16:14:33;9.33;;;4.77;;
44832;SDS011;30569;51.252;9.830;2023-03-01T16:16:59;8.70;;;4.57;;
44832;SDS011;30569;51.252;9.830;2023-03-01T16:19:26;9.27;;;5.07;;
44832;SDS011;30569;51.252;9.830;2023-03-01T16:21:51;10.73;;;5.07;;
44832;SDS011;30569;51.252;9.830;2023-03-01T16:24:17;11.20;;;5.07;;
44832;SDS011;30569;51.252;9.830;2023-03-01T16:26:43;8.37;;;4.50;;
44832;SDS011;30569;51.252;9.830;2023-03-01T16:29:09;11.97;;;5.03;;
44832;SDS011;30569;51.252;9.830;2023-03-01T16:31:35;10.37;;;4.80;;
44832;SDS011;30569;51.252;9.830;2023-03-01T16:34:01;7.80;;;4.70;;